sensor_id;sensor_type;location;lat;lon;timestamp;pressure;altitude;pressure_sealevel;temperature;humidity
2785;BME280;57944;48.722;9.316;2023-01-30T00:01:55;98740.81;;;-5.35;100.00
2785;BME280;57944;48.722;9.316;2023-01-30T00:04:25;98724.31;;;-5.36;100.00
2785;BME280;57944;48.722;9.316;2023-01-30T00:06:58;98724.97;;;-5.32;100.00
2785;BME280;57944;48.722;9.316;2023-01-30T00:09:29;98727.38;;;-5.31;100.00
2785;BME280;57944;48.722;9.316;2023-01-30T00:11:59;98718.91;;;-5.27;100.00
2785;BME280;57944;48.722;9.316;2023-01-30T00:14:29;98721.78;;;-5.34;100.00
2785;BME280;57944;48.722;9.316;2023-01-30T00:16:59;98717.16;;;-5.42;100.00
2785;BME280;57944;48.722;9.316;2023-01-30T00:19:30;98700.13;;;-5.50;100.00
2785;BME280;57944;48.722;9.316;2023-01-30T00:22:02;98698.53;;;-5.51;100.00
2785;BME280;57944;48.722;9.316;2023-01-30T00:24:32;98689.41;;;-5.50;100.00
2785;BME280;57944;48.722;9.316;2023-01-30T00:27:03;98688.50;;;-5.49;100.00
2785;BME280;57944;48.722;9.316;2023-01-30T00:29:35;98680.41;;;-5.35;100.00
2785;BME280;57944;48.722;9.316;2023-01-30T00:32:06;98674.72;;;-5.04;100.00
2785;BME280;57944;48.722;9.316;2023-01-30T00:34:39;98678.41;;;-5.11;100.00
2785;BME280;57944;48.722;9.316;2023-01-30T00:37:11;98683.84;;;-5.21;100.00
2785;BME280;57944;48.722;9.316;2023-01-30T00:39:42;98684.47;;;-5.17;100.00
2785;BME280;57944;48.722;9.316;2023-01-30T00:42:12;98679.41;;;-5.16;100.00
2785;BME280;57944;48.722;9.316;2023-01-30T00:44:55;98668.41;;;-5.27;100.00
2785;BME280;57944;48.722;9.316;2023-01-30T00:47:38;98660.31;;;-5.31;100.00
2785;BME280;57944;48.722;9.316;2023-01-30T00:50:09;98660.78;;;-5.40;100.00
2785;BME280;57944;48.722;9.316;2023-01-30T00:52:45;98669.38;;;-5.47;100.00
2785;BME280;57944;48.722;9.316;2023-01-30T00:55:17;98674.56;;;-5.34;100.00
2785;BME280;57944;48.722;9.316;2023-01-30T00:57:47;98669.66;;;-5.36;100.00
2785;BME280;57944;48.722;9.316;2023-01-30T01:00:17;98673.03;;;-5.37;100.00
2785;BME280;57944;48.722;9.316;2023-01-30T01:02:50;98685.59;;;-5.40;100.00
2785;BME280;57944;48.722;9.316;2023-01-30T01:05:20;98692.47;;;-5.45;100.00
2785;BME280;57944;48.722;9.316;2023-01-30T01:07:55;98698.88;;;-5.41;100.00
2785;BME280;57944;48.722;9.316;2023-01-30T01:10:25;98707.38;;;-5.45;100.00
2785;BME280;57944;48.722;9.316;2023-01-30T01:12:55;98711.91;;;-5.53;100.00
2785;BME280;57944;48.722;9.316;2023-01-30T01:15:26;98728.41;;;-5.35;100.00
2785;BME280;57944;48.722;9.316;2023-01-30T01:17:59;98725.91;;;-5.35;100.00
2785;BME280;57944;48.722;9.316;2023-01-30T01:20:30;98739.72;;;-5.29;100.00
2785;BME280;57944;48.722;9.316;2023-01-30T01:23:04;98742.00;;;-5.25;100.00
2785;BME280;57944;48.722;9.316;2023-01-30T01:25:34;98744.84;;;-5.32;100.00
2785;BME280;57944;48.722;9.316;2023-01-30T01:28:05;98737.97;;;-5.27;100.00
2785;BME280;57944;48.722;9.316;2023-01-30T01:30:37;98746.94;;;-5.07;100.00
2785;BME280;57944;48.722;9.316;2023-01-30T01:33:09;98749.84;;;-4.82;100.00
2785;BME280;57944;48.722;9.316;2023-01-30T01:35:40;98756.22;;;-4.60;100.00
2785;BME280;57944;48.722;9.316;2023-01-30T01:38:13;98767.50;;;-4.53;100.00
2785;BME280;57944;48.722;9.316;2023-01-30T01:40:45;98758.34;;;-4.53;100.00
2785;BME280;57944;48.722;9.316;2023-01-30T01:43:31;98763.78;;;-4.46;100.00
2785;BME280;57944;48.722;9.316;2023-01-30T01:46:09;98761.16;;;-4.43;100.00
2785;BME280;57944;48.722;9.316;2023-01-30T01:48:47;98761.34;;;-4.30;100.00
2785;BME280;57944;48.722;9.316;2023-01-30T01:51:28;98736.63;;;-4.17;100.00
2785;BME280;57944;48.722;9.316;2023-01-30T01:54:08;98733.72;;;-4.25;100.00
2785;BME280;57944;48.722;9.316;2023-01-30T01:56:43;98739.34;;;-4.22;100.00
2785;BME280;57944;48.722;9.316;2023-01-30T01:59:24;98748.81;;;-4.13;100.00
2785;BME280;57944;48.722;9.316;2023-01-30T02:02:00;98744.34;;;-4.06;100.00
2785;BME280;57944;48.722;9.316;2023-01-30T02:04:33;98748.19;;;-4.00;100.00
2785;BME280;57944;48.722;9.316;2023-01-30T02:07:20;98745.44;;;-3.96;100.00
2785;BME280;57944;48.722;9.316;2023-01-30T02:09:54;98748.66;;;-3.94;100.00
2785;BME280;57944;48.722;9.316;2023-01-30T02:12:25;98761.44;;;-4.00;100.00
2785;BME280;57944;48.722;9.316;2023-01-30T02:14:59;98757.88;;;-3.96;100.00
2785;BME280;57944;48.722;9.316;2023-01-30T02:17:29;98751.47;;;-4.00;100.00
2785;BME280;57944;48.722;9.316;2023-01-30T02:20:10;98754.19;;;-4.05;100.00
2785;BME280;57944;48.722;9.316;2023-01-30T02:23:09;98753.22;;;-4.02;100.00
2785;BME280;57944;48.722;9.316;2023-01-30T02:26:41;98752.66;;;-4.07;100.00
2785;BME280;57944;48.722;9.316;2023-01-30T02:30:14;98739.13;;;-4.17;100.00
2785;BME280;57944;48.722;9.316;2023-01-30T02:33:07;98732.44;;;-4.33;100.00
2785;BME280;57944;48.722;9.316;2023-01-30T02:35:51;98732.34;;;-4.47;100.00
2785;BME280;57944;48.722;9.316;2023-01-30T02:38:37;98711.72;;;-4.49;100.00
2785;BME280;57944;48.722;9.316;2023-01-30T02:41:24;98700.97;;;-4.50;100.00
2785;BME280;57944;48.722;9.316;2023-01-30T02:44:03;98713.19;;;-4.45;100.00
2785;BME280;57944;48.722;9.316;2023-01-30T02:46:42;98717.41;;;-4.47;100.00
2785;BME280;57944;48.722;9.316;2023-01-30T02:49:28;98717.47;;;-4.49;100.00
2785;BME280;57944;48.722;9.316;2023-01-30T02:52:02;98710.19;;;-4.52;100.00
2785;BME280;57944;48.722;9.316;2023-01-30T02:54:35;98686.19;;;-4.53;100.00
2785;BME280;57944;48.722;9.316;2023-01-30T02:57:18;98687.00;;;-4.52;100.00
2785;BME280;57944;48.722;9.316;2023-01-30T02:59:55;98688.63;;;-4.51;100.00
2785;BME280;57944;48.722;9.316;2023-01-30T03:03:02;98727.19;;;-4.60;100.00
2785;BME280;57944;48.722;9.316;2023-01-30T03:06:20;98717.16;;;-4.58;100.00
2785;BME280;57944;48.722;9.316;2023-01-30T03:09:07;98717.06;;;-4.73;100.00
2785;BME280;57944;48.722;9.316;2023-01-30T03:11:48;98692.94;;;-4.70;100.00
2785;BME280;57944;48.722;9.316;2023-01-30T03:14:25;98681.28;;;-4.54;100.00
2785;BME280;57944;48.722;9.316;2023-01-30T03:16:59;98674.50;;;-4.51;100.00
2785;BME280;57944;48.722;9.316;2023-01-30T03:19:31;98653.63;;;-4.48;100.00
2785;BME280;57944;48.722;9.316;2023-01-30T03:22:04;98654.34;;;-4.46;100.00
2785;BME280;57944;48.722;9.316;2023-01-30T03:24:34;98662.13;;;-4.36;100.00
2785;BME280;57944;48.722;9.316;2023-01-30T03:27:10;98650.97;;;-4.45;100.00
2785;BME280;57944;48.722;9.316;2023-01-30T03:29:41;98638.22;;;-4.39;100.00
2785;BME280;57944;48.722;9.316;2023-01-30T03:32:11;98619.88;;;-4.06;100.00
2785;BME280;57944;48.722;9.316;2023-01-30T03:34:41;98603.16;;;-4.04;100.00
2785;BME280;57944;48.722;9.316;2023-01-30T03:37:15;98574.38;;;-3.94;100.00
2785;BME280;57944;48.722;9.316;2023-01-30T03:39:45;98565.69;;;-3.87;100.00
2785;BME280;57944;48.722;9.316;2023-01-30T03:42:15;98561.75;;;-3.76;100.00
2785;BME280;57944;48.722;9.316;2023-01-30T03:44:46;98587.84;;;-3.68;100.00
2785;BME280;57944;48.722;9.316;2023-01-30T03:47:16;98599.59;;;-3.55;100.00
2785;BME280;57944;48.722;9.316;2023-01-30T03:49:48;98590.09;;;-3.49;100.00
2785;BME280;57944;48.722;9.316;2023-01-30T03:52:22;98595.53;;;-3.42;100.00
2785;BME280;57944;48.722;9.316;2023-01-30T03:54:53;98598.03;;;-3.28;100.00
2785;BME280;57944;48.722;9.316;2023-01-30T03:57:23;98596.88;;;-3.22;100.00
2785;BME280;57944;48.722;9.316;2023-01-30T03:59:53;98586.72;;;-3.19;100.00
2785;BME280;57944;48.722;9.316;2023-01-30T04:02:23;98594.81;;;-3.16;100.00
2785;BME280;57944;48.722;9.316;2023-01-30T04:04:55;98584.75;;;-3.14;100.00
2785;BME280;57944;48.722;9.316;2023-01-30T04:07:28;98573.97;;;-3.00;100.00
2785;BME280;57944;48.722;9.316;2023-01-30T04:09:59;98570.66;;;-2.86;100.00
2785;BME280;57944;48.722;9.316;2023-01-30T04:12:29;98581.94;;;-2.81;100.00
2785;BME280;57944;48.722;9.316;2023-01-30T04:14:59;98592.34;;;-2.74;100.00
2785;BME280;57944;48.722;9.316;2023-01-30T04:17:54;98597.13;;;-2.71;100.00
2785;BME280;57944;48.722;9.316;2023-01-30T04:20:33;98611.91;;;-2.68;100.00
2785;BME280;57944;48.722;9.316;2023-01-30T04:23:07;98610.75;;;-2.62;100.00
2785;BME280;57944;48.722;9.316;2023-01-30T04:25:38;98613.50;;;-2.53;100.00
2785;BME280;57944;48.722;9.316;2023-01-30T04:28:09;98622.13;;;-2.44;100.00
2785;BME280;57944;48.722;9.316;2023-01-30T04:30:40;98628.75;;;-2.30;100.00
2785;BME280;57944;48.722;9.316;2023-01-30T04:33:31;98608.22;;;-2.21;100.00
2785;BME280;57944;48.722;9.316;2023-01-30T04:36:06;98603.72;;;-2.16;100.00
2785;BME280;57944;48.722;9.316;2023-01-30T04:38:39;98599.25;;;-2.11;100.00
2785;BME280;57944;48.722;9.316;2023-01-30T04:41:09;98604.97;;;-2.09;100.00
2785;BME280;57944;48.722;9.316;2023-01-30T04:43:41;98596.75;;;-2.11;100.00
2785;BME280;57944;48.722;9.316;2023-01-30T04:46:25;98596.56;;;-2.08;100.00
2785;BME280;57944;48.722;9.316;2023-01-30T04:48:56;98599.97;;;-2.09;100.00
2785;BME280;57944;48.722;9.316;2023-01-30T04:51:27;98600.38;;;-2.02;100.00
2785;BME280;57944;48.722;9.316;2023-01-30T04:54:01;98592.28;;;-2.06;100.00
2785;BME280;57944;48.722;9.316;2023-01-30T04:56:32;98614.75;;;-1.93;100.00
2785;BME280;57944;48.722;9.316;2023-01-30T04:59:03;98609.00;;;-1.81;100.00
2785;BME280;57944;48.722;9.316;2023-01-30T05:01:39;98607.59;;;-1.85;100.00
2785;BME280;57944;48.722;9.316;2023-01-30T05:04:10;98595.00;;;-1.83;100.00
2785;BME280;57944;48.722;9.316;2023-01-30T05:06:40;98592.22;;;-1.66;100.00
2785;BME280;57944;48.722;9.316;2023-01-30T05:09:13;98589.31;;;-1.60;100.00
2785;BME280;57944;48.722;9.316;2023-01-30T05:11:43;98589.53;;;-1.63;100.00
2785;BME280;57944;48.722;9.316;2023-01-30T05:14:13;98581.81;;;-1.60;100.00
2785;BME280;57944;48.722;9.316;2023-01-30T05:16:43;98588.22;;;-1.55;100.00
2785;BME280;57944;48.722;9.316;2023-01-30T05:19:14;98584.41;;;-1.48;100.00
2785;BME280;57944;48.722;9.316;2023-01-30T05:21:44;98583.75;;;-1.50;100.00
2785;BME280;57944;48.722;9.316;2023-01-30T05:24:16;98570.63;;;-1.41;100.00
2785;BME280;57944;48.722;9.316;2023-01-30T05:26:47;98568.13;;;-1.41;100.00
2785;BME280;57944;48.722;9.316;2023-01-30T05:29:17;98562.22;;;-1.40;100.00
2785;BME280;57944;48.722;9.316;2023-01-30T05:31:47;98557.13;;;-1.51;100.00
2785;BME280;57944;48.722;9.316;2023-01-30T05:34:17;98554.84;;;-1.42;100.00
2785;BME280;57944;48.722;9.316;2023-01-30T05:36:48;98559.34;;;-1.47;100.00
2785;BME280;57944;48.722;9.316;2023-01-30T05:39:20;98549.25;;;-1.58;100.00
2785;BME280;57944;48.722;9.316;2023-01-30T05:41:51;98548.91;;;-1.41;100.00
2785;BME280;57944;48.722;9.316;2023-01-30T05:44:21;98551.25;;;-1.50;100.00
2785;BME280;57944;48.722;9.316;2023-01-30T05:46:51;98548.75;;;-1.50;100.00
2785;BME280;57944;48.722;9.316;2023-01-30T05:49:21;98534.63;;;-1.51;100.00
2785;BME280;57944;48.722;9.316;2023-01-30T05:51:51;98539.22;;;-1.45;100.00
2785;BME280;57944;48.722;9.316;2023-01-30T05:54:24;98534.50;;;-1.37;100.00
2785;BME280;57944;48.722;9.316;2023-01-30T05:56:55;98536.41;;;-1.41;100.00
2785;BME280;57944;48.722;9.316;2023-01-30T05:59:25;98529.84;;;-1.42;100.00
2785;BME280;57944;48.722;9.316;2023-01-30T06:01:55;98540.50;;;-1.40;100.00
2785;BME280;57944;48.722;9.316;2023-01-30T06:04:26;98535.13;;;-1.33;100.00
2785;BME280;57944;48.722;9.316;2023-01-30T06:06:56;98542.78;;;-1.24;100.00
2785;BME280;57944;48.722;9.316;2023-01-30T06:09:29;98540.66;;;-1.17;100.00
2785;BME280;57944;48.722;9.316;2023-01-30T06:11:59;98540.78;;;-1.19;100.00
2785;BME280;57944;48.722;9.316;2023-01-30T06:14:29;98551.50;;;-1.29;100.00
2785;BME280;57944;48.722;9.316;2023-01-30T06:17:00;98548.41;;;-1.33;100.00
2785;BME280;57944;48.722;9.316;2023-01-30T06:19:30;98541.81;;;-1.34;100.00
2785;BME280;57944;48.722;9.316;2023-01-30T06:22:00;98539.19;;;-1.20;100.00
2785;BME280;57944;48.722;9.316;2023-01-30T06:24:35;98545.78;;;-1.19;100.00
2785;BME280;57944;48.722;9.316;2023-01-30T06:27:05;98539.56;;;-1.00;100.00
2785;BME280;57944;48.722;9.316;2023-01-30T06:29:35;98541.13;;;-0.99;100.00
2785;BME280;57944;48.722;9.316;2023-01-30T06:32:05;98537.94;;;-1.01;100.00
2785;BME280;57944;48.722;9.316;2023-01-30T06:34:36;98517.13;;;-1.02;100.00
2785;BME280;57944;48.722;9.316;2023-01-30T06:37:07;98521.94;;;-1.12;100.00
2785;BME280;57944;48.722;9.316;2023-01-30T06:39:40;98521.94;;;-1.12;100.00
2785;BME280;57944;48.722;9.316;2023-01-30T06:42:10;98512.38;;;-1.18;100.00
2785;BME280;57944;48.722;9.316;2023-01-30T06:44:40;98508.41;;;-1.33;100.00
2785;BME280;57944;48.722;9.316;2023-01-30T06:47:10;98513.50;;;-1.35;100.00
2785;BME280;57944;48.722;9.316;2023-01-30T06:49:40;98519.69;;;-1.27;100.00
2785;BME280;57944;48.722;9.316;2023-01-30T06:52:11;98504.28;;;-1.21;100.00
2785;BME280;57944;48.722;9.316;2023-01-30T06:54:43;98519.88;;;-1.18;100.00
2785;BME280;57944;48.722;9.316;2023-01-30T06:57:14;98524.66;;;-1.15;100.00
2785;BME280;57944;48.722;9.316;2023-01-30T06:59:44;98526.34;;;-1.02;100.00
2785;BME280;57944;48.722;9.316;2023-01-30T07:02:14;98516.91;;;-0.99;100.00
2785;BME280;57944;48.722;9.316;2023-01-30T07:04:44;98508.09;;;-0.92;100.00
2785;BME280;57944;48.722;9.316;2023-01-30T07:07:15;98515.75;;;-0.82;100.00
2785;BME280;57944;48.722;9.316;2023-01-30T07:09:48;98513.41;;;-0.72;100.00
2785;BME280;57944;48.722;9.316;2023-01-30T07:12:33;98524.72;;;-0.66;100.00
2785;BME280;57944;48.722;9.316;2023-01-30T07:15:06;98540.81;;;-0.71;100.00
2785;BME280;57944;48.722;9.316;2023-01-30T07:17:36;98542.28;;;-0.55;100.00
2785;BME280;57944;48.722;9.316;2023-01-30T07:20:12;98540.78;;;-0.23;100.00
2785;BME280;57944;48.722;9.316;2023-01-30T07:22:49;98544.84;;;-0.33;100.00
2785;BME280;57944;48.722;9.316;2023-01-30T07:25:24;98537.88;;;-0.05;100.00
2785;BME280;57944;48.722;9.316;2023-01-30T07:27:58;98554.38;;;-0.14;100.00
2785;BME280;57944;48.722;9.316;2023-01-30T07:30:31;98560.97;;;-0.13;100.00
2785;BME280;57944;48.722;9.316;2023-01-30T07:33:04;98553.81;;;-0.06;100.00
2785;BME280;57944;48.722;9.316;2023-01-30T07:35:36;98550.88;;;0.00;100.00
2785;BME280;57944;48.722;9.316;2023-01-30T07:38:06;98551.31;;;0.05;100.00
2785;BME280;57944;48.722;9.316;2023-01-30T07:40:39;98543.84;;;0.28;100.00
2785;BME280;57944;48.722;9.316;2023-01-30T07:43:11;98554.31;;;0.21;100.00
2785;BME280;57944;48.722;9.316;2023-01-30T07:45:46;98576.63;;;0.13;100.00
2785;BME280;57944;48.722;9.316;2023-01-30T07:48:18;98564.25;;;-0.12;100.00
2785;BME280;57944;48.722;9.316;2023-01-30T07:50:49;98567.47;;;-0.10;100.00
2785;BME280;57944;48.722;9.316;2023-01-30T07:53:19;98570.69;;;0.03;100.00
2785;BME280;57944;48.722;9.316;2023-01-30T07:55:51;98576.78;;;-0.12;100.00
2785;BME280;57944;48.722;9.316;2023-01-30T07:58:22;98569.31;;;-0.01;100.00
2785;BME280;57944;48.722;9.316;2023-01-30T08:00:54;98562.03;;;0.07;100.00
2785;BME280;57944;48.722;9.316;2023-01-30T08:03:25;98545.22;;;0.32;100.00
2785;BME280;57944;48.722;9.316;2023-01-30T08:05:55;98538.50;;;0.32;100.00
2785;BME280;57944;48.722;9.316;2023-01-30T08:08:25;98538.63;;;0.53;100.00
2785;BME280;57944;48.722;9.316;2023-01-30T08:10:59;98526.09;;;0.42;100.00
2785;BME280;57944;48.722;9.316;2023-01-30T08:13:29;98535.53;;;0.61;100.00
2785;BME280;57944;48.722;9.316;2023-01-30T08:15:59;98548.28;;;0.47;100.00
2785;BME280;57944;48.722;9.316;2023-01-30T08:18:30;98553.06;;;0.27;100.00
2785;BME280;57944;48.722;9.316;2023-01-30T08:21:02;98565.16;;;0.44;100.00
2785;BME280;57944;48.722;9.316;2023-01-30T08:23:33;98577.59;;;0.46;100.00
2785;BME280;57944;48.722;9.316;2023-01-30T08:26:06;98578.75;;;0.42;100.00
2785;BME280;57944;48.722;9.316;2023-01-30T08:28:36;98560.72;;;0.59;100.00
2785;BME280;57944;48.722;9.316;2023-01-30T08:31:09;98547.72;;;0.65;100.00
2785;BME280;57944;48.722;9.316;2023-01-30T08:33:40;98562.22;;;0.84;100.00
2785;BME280;57944;48.722;9.316;2023-01-30T08:36:10;98557.28;;;0.94;100.00
2785;BME280;57944;48.722;9.316;2023-01-30T08:38:41;98542.00;;;0.86;100.00
2785;BME280;57944;48.722;9.316;2023-01-30T08:41:13;98542.91;;;0.96;100.00
2785;BME280;57944;48.722;9.316;2023-01-30T08:43:43;98539.69;;;1.05;100.00
2785;BME280;57944;48.722;9.316;2023-01-30T08:46:14;98542.41;;;1.14;100.00
2785;BME280;57944;48.722;9.316;2023-01-30T08:48:44;98531.88;;;1.31;100.00
2785;BME280;57944;48.722;9.316;2023-01-30T08:51:16;98529.03;;;1.56;100.00
2785;BME280;57944;48.722;9.316;2023-01-30T08:53:46;98516.03;;;1.72;100.00
2785;BME280;57944;48.722;9.316;2023-01-30T08:56:19;98515.84;;;2.06;100.00
2785;BME280;57944;48.722;9.316;2023-01-30T08:58:49;98494.75;;;2.18;100.00
2785;BME280;57944;48.722;9.316;2023-01-30T09:01:20;98482.19;;;2.28;100.00
2785;BME280;57944;48.722;9.316;2023-01-30T09:03:50;98492.22;;;2.59;100.00
2785;BME280;57944;48.722;9.316;2023-01-30T09:06:20;98493.09;;;2.88;100.00
2785;BME280;57944;48.722;9.316;2023-01-30T09:08:52;98487.88;;;2.61;100.00
2785;BME280;57944;48.722;9.316;2023-01-30T09:11:25;98481.94;;;2.72;100.00
2785;BME280;57944;48.722;9.316;2023-01-30T09:13:55;98445.41;;;3.06;100.00
2785;BME280;57944;48.722;9.316;2023-01-30T09:16:25;98452.44;;;3.03;100.00
2785;BME280;57944;48.722;9.316;2023-01-30T09:18:55;98459.97;;;3.03;100.00
2785;BME280;57944;48.722;9.316;2023-01-30T09:21:26;98466.06;;;2.90;100.00
2785;BME280;57944;48.722;9.316;2023-01-30T09:23:58;98462.09;;;3.17;100.00
2785;BME280;57944;48.722;9.316;2023-01-30T09:26:31;98450.81;;;3.60;100.00
2785;BME280;57944;48.722;9.316;2023-01-30T09:29:01;98468.53;;;3.88;100.00
2785;BME280;57944;48.722;9.316;2023-01-30T09:31:32;98469.75;;;3.74;100.00
2785;BME280;57944;48.722;9.316;2023-01-30T09:34:02;98464.44;;;3.67;100.00
2785;BME280;57944;48.722;9.316;2023-01-30T09:36:32;98468.41;;;3.70;100.00
2785;BME280;57944;48.722;9.316;2023-01-30T09:39:03;98468.41;;;3.79;100.00
2785;BME280;57944;48.722;9.316;2023-01-30T09:41:55;98478.06;;;3.84;100.00
2785;BME280;57944;48.722;9.316;2023-01-30T09:47:56;98479.84;;;3.64;100.00
2785;BME280;57944;48.722;9.316;2023-01-30T09:51:13;98471.13;;;3.29;100.00
2785;BME280;57944;48.722;9.316;2023-01-30T09:54:13;98461.31;;;3.46;100.00
2785;BME280;57944;48.722;9.316;2023-01-30T09:56:57;98456.00;;;3.49;100.00
2785;BME280;57944;48.722;9.316;2023-01-30T09:59:44;98454.13;;;3.51;100.00
2785;BME280;57944;48.722;9.316;2023-01-30T10:02:40;98444.53;;;3.74;100.00
2785;BME280;57944;48.722;9.316;2023-01-30T10:05:13;98430.50;;;3.62;100.00
2785;BME280;57944;48.722;9.316;2023-01-30T10:08:18;98425.34;;;4.00;100.00
2785;BME280;57944;48.722;9.316;2023-01-30T10:10:58;98425.41;;;4.18;100.00
2785;BME280;57944;48.722;9.316;2023-01-30T10:14:04;98431.00;;;4.40;100.00
2785;BME280;57944;48.722;9.316;2023-01-30T10:16:45;98420.19;;;4.30;97.76
2785;BME280;57944;48.722;9.316;2023-01-30T10:19:43;98403.50;;;4.19;100.00
2785;BME280;57944;48.722;9.316;2023-01-30T10:22:33;98398.19;;;4.12;100.00
2785;BME280;57944;48.722;9.316;2023-01-30T10:25:21;98409.50;;;4.36;98.85
2785;BME280;57944;48.722;9.316;2023-01-30T10:28:03;98403.03;;;4.51;98.57
2785;BME280;57944;48.722;9.316;2023-01-30T10:30:38;98406.31;;;4.34;100.00
2785;BME280;57944;48.722;9.316;2023-01-30T10:33:20;98399.75;;;4.23;100.00
2785;BME280;57944;48.722;9.316;2023-01-30T10:36:03;98386.22;;;4.42;100.00
2785;BME280;57944;48.722;9.316;2023-01-30T10:38:42;98378.44;;;4.35;100.00
2785;BME280;57944;48.722;9.316;2023-01-30T10:41:24;98392.72;;;4.27;100.00
2785;BME280;57944;48.722;9.316;2023-01-30T10:44:01;98384.84;;;4.30;100.00
2785;BME280;57944;48.722;9.316;2023-01-30T10:47:00;98387.78;;;4.25;100.00
2785;BME280;57944;48.722;9.316;2023-01-30T10:49:39;98359.91;;;4.27;100.00
2785;BME280;57944;48.722;9.316;2023-01-30T10:52:25;98369.72;;;4.30;100.00
2785;BME280;57944;48.722;9.316;2023-01-30T10:55:08;98374.41;;;4.42;100.00
2785;BME280;57944;48.722;9.316;2023-01-30T10:57:55;98357.38;;;4.62;100.00
2785;BME280;57944;48.722;9.316;2023-01-30T11:00:31;98358.84;;;4.65;100.00
2785;BME280;57944;48.722;9.316;2023-01-30T11:03:16;98375.84;;;4.27;100.00
2785;BME280;57944;48.722;9.316;2023-01-30T11:05:51;98375.56;;;4.30;100.00
2785;BME280;57944;48.722;9.316;2023-01-30T11:08:24;98363.53;;;4.42;100.00
2785;BME280;57944;48.722;9.316;2023-01-30T11:10:56;98355.16;;;4.59;100.00
2785;BME280;57944;48.722;9.316;2023-01-30T11:13:30;98360.34;;;4.40;100.00
2785;BME280;57944;48.722;9.316;2023-01-30T11:16:07;98373.41;;;4.35;100.00
2785;BME280;57944;48.722;9.316;2023-01-30T11:18:48;98367.84;;;4.67;100.00
2785;BME280;57944;48.722;9.316;2023-01-30T11:21:40;98363.16;;;4.73;100.00
2785;BME280;57944;48.722;9.316;2023-01-30T11:24:16;98361.34;;;4.29;100.00
2785;BME280;57944;48.722;9.316;2023-01-30T11:26:48;98367.00;;;3.86;100.00
2785;BME280;57944;48.722;9.316;2023-01-30T11:29:28;98366.44;;;3.64;100.00
2785;BME280;57944;48.722;9.316;2023-01-30T11:32:03;98357.84;;;3.57;100.00
2785;BME280;57944;48.722;9.316;2023-01-30T11:34:36;98365.41;;;3.57;100.00
2785;BME280;57944;48.722;9.316;2023-01-30T11:37:23;98352.47;;;3.70;100.00
2785;BME280;57944;48.722;9.316;2023-01-30T11:39:56;98361.88;;;3.77;100.00
2785;BME280;57944;48.722;9.316;2023-01-30T11:42:30;98358.00;;;3.46;100.00
2785;BME280;57944;48.722;9.316;2023-01-30T11:45:01;98355.78;;;3.43;100.00
2785;BME280;57944;48.722;9.316;2023-01-30T11:47:51;98372.34;;;3.35;100.00
2785;BME280;57944;48.722;9.316;2023-01-30T11:50:40;98379.66;;;3.19;100.00
2785;BME280;57944;48.722;9.316;2023-01-30T11:53:29;98379.41;;;3.12;100.00
2785;BME280;57944;48.722;9.316;2023-01-30T11:56:11;98381.69;;;2.96;100.00
2785;BME280;57944;48.722;9.316;2023-01-30T11:58:43;98369.06;;;2.67;100.00
2785;BME280;57944;48.722;9.316;2023-01-30T12:01:16;98365.38;;;2.52;100.00
2785;BME280;57944;48.722;9.316;2023-01-30T12:03:50;98371.84;;;2.44;100.00
2785;BME280;57944;48.722;9.316;2023-01-30T12:06:31;98374.75;;;2.50;100.00
2785;BME280;57944;48.722;9.316;2023-01-30T12:09:03;98355.97;;;2.34;100.00
2785;BME280;57944;48.722;9.316;2023-01-30T12:11:42;98362.44;;;2.37;100.00
2785;BME280;57944;48.722;9.316;2023-01-30T12:14:34;98368.50;;;2.15;100.00
2785;BME280;57944;48.722;9.316;2023-01-30T12:17:15;98365.00;;;2.06;100.00
2785;BME280;57944;48.722;9.316;2023-01-30T12:19:58;98360.28;;;2.13;100.00
2785;BME280;57944;48.722;9.316;2023-01-30T12:22:43;98346.38;;;2.18;100.00
2785;BME280;57944;48.722;9.316;2023-01-30T12:25:21;98350.22;;;2.13;100.00
2785;BME280;57944;48.722;9.316;2023-01-30T12:27:58;98358.19;;;2.18;100.00
2785;BME280;57944;48.722;9.316;2023-01-30T12:30:35;98348.91;;;2.28;100.00
2785;BME280;57944;48.722;9.316;2023-01-30T12:33:12;98347.31;;;2.17;100.00
2785;BME280;57944;48.722;9.316;2023-01-30T12:35:56;98346.19;;;2.00;100.00
2785;BME280;57944;48.722;9.316;2023-01-30T12:38:52;98350.94;;;1.84;100.00
2785;BME280;57944;48.722;9.316;2023-01-30T12:41:40;98361.06;;;2.04;100.00
2785;BME280;57944;48.722;9.316;2023-01-30T12:44:37;98346.19;;;2.00;100.00
2785;BME280;57944;48.722;9.316;2023-01-30T12:47:35;98361.81;;;1.94;100.00
2785;BME280;57944;48.722;9.316;2023-01-30T12:50:26;98373.22;;;1.98;100.00
2785;BME280;57944;48.722;9.316;2023-01-30T12:53:19;98373.47;;;1.95;100.00
2785;BME280;57944;48.722;9.316;2023-01-30T12:59:10;98384.75;;;1.70;100.00
2785;BME280;57944;48.722;9.316;2023-01-30T13:01:56;98387.34;;;1.69;100.00
2785;BME280;57944;48.722;9.316;2023-01-30T13:04:43;98399.22;;;1.57;100.00
2785;BME280;57944;48.722;9.316;2023-01-30T13:07:40;98396.81;;;1.55;100.00
2785;BME280;57944;48.722;9.316;2023-01-30T13:10:20;98390.88;;;1.56;100.00
2785;BME280;57944;48.722;9.316;2023-01-30T13:13:10;98398.16;;;1.60;100.00
2785;BME280;57944;48.722;9.316;2023-01-30T13:15:50;98392.47;;;1.58;100.00
2785;BME280;57944;48.722;9.316;2023-01-30T13:18:31;98395.50;;;1.61;100.00
2785;BME280;57944;48.722;9.316;2023-01-30T13:21:10;98395.50;;;1.61;100.00
2785;BME280;57944;48.722;9.316;2023-01-30T13:24:00;98387.63;;;1.66;100.00
2785;BME280;57944;48.722;9.316;2023-01-30T13:26:36;98388.41;;;1.66;100.00
2785;BME280;57944;48.722;9.316;2023-01-30T13:29:17;98398.34;;;1.68;100.00
2785;BME280;57944;48.722;9.316;2023-01-30T13:31:54;98402.59;;;1.77;100.00
2785;BME280;57944;48.722;9.316;2023-01-30T13:34:32;98402.69;;;1.66;100.00
2785;BME280;57944;48.722;9.316;2023-01-30T13:37:10;98413.66;;;1.65;100.00
2785;BME280;57944;48.722;9.316;2023-01-30T13:39:47;98415.25;;;1.66;100.00
2785;BME280;57944;48.722;9.316;2023-01-30T13:42:37;98409.19;;;1.68;100.00
2785;BME280;57944;48.722;9.316;2023-01-30T13:45:19;98406.94;;;1.75;100.00
2785;BME280;57944;48.722;9.316;2023-01-30T13:48:07;98409.72;;;1.72;100.00
2785;BME280;57944;48.722;9.316;2023-01-30T13:53:56;98423.94;;;1.83;100.00
2785;BME280;57944;48.722;9.316;2023-01-30T13:56:35;98421.53;;;1.81;100.00
2785;BME280;57944;48.722;9.316;2023-01-30T13:59:21;98436.22;;;1.76;100.00
2785;BME280;57944;48.722;9.316;2023-01-30T14:02:25;98437.78;;;1.77;100.00
2785;BME280;57944;48.722;9.316;2023-01-30T14:04:57;98445.56;;;1.74;100.00